Time;durP1;ratioP1;P1;durP2;ratioP2;P2;SDS_P1;SDS_P2;PMS_P1;PMS_P2;Temp;Humidity;BMP_temperature;BMP_pressure;BME280_temperature;BME280_humidity;BME280_pressure;Samples;Min_cycle;Max_cycle;Signal;HPM_P1;HPM_P2
2023/05/29 00:00:28;;;;;;;4.15;2.90;;;13.60;99.90;;;;;;4980171;28;20214;-85
2023/05/29 00:02:55;;;;;;;4.15;3.65;;;13.50;99.90;;;;;;4980589;28;20238;-87
2023/05/29 00:05:22;;;;;;;3.35;2.85;;;13.60;99.90;;;;;;4980490;28;20215;-85
2023/05/29 00:07:50;;;;;;;3.55;2.70;;;13.50;99.90;;;;;;4981083;28;20226;-86
2023/05/29 00:10:19;;;;;;;4.13;3.03;;;13.50;99.90;;;;;;4982346;28;20222;-84
2023/05/29 00:12:46;;;;;;;3.65;2.72;;;13.40;99.90;;;;;;4980435;28;20526;-86
2023/05/29 00:15:13;;;;;;;6.38;4.25;;;13.30;99.90;;;;;;4978966;28;20257;-88
2023/05/29 00:17:40;;;;;;;8.48;4.05;;;13.30;99.90;;;;;;4979164;28;20225;-86
2023/05/29 00:20:11;;;;;;;3.17;2.60;;;13.40;99.90;;;;;;4982473;28;20253;-85
2023/05/29 00:22:39;;;;;;;9.27;3.30;;;13.40;99.90;;;;;;4978685;28;20222;-85
2023/05/29 00:25:07;;;;;;;3.33;2.58;;;13.40;99.90;;;;;;4981892;28;20210;-87
2023/05/29 00:27:34;;;;;;;5.95;3.88;;;13.30;99.90;;;;;;4983300;28;20238;-85
2023/05/29 00:30:03;;;;;;;4.30;2.85;;;13.20;99.90;;;;;;4991354;28;20190;-86
2023/05/29 00:32:29;;;;;;;4.80;3.38;;;13.00;99.90;;;;;;4990883;28;20281;-83
2023/05/29 00:34:57;;;;;;;3.90;3.00;;;12.80;99.90;;;;;;4991807;28;20513;-86
2023/05/29 00:37:24;;;;;;;5.68;3.72;;;12.70;99.90;;;;;;4995240;28;20192;-83
2023/05/29 00:39:51;;;;;;;13.93;3.42;;;12.40;99.90;;;;;;4989581;28;20202;-85
2023/05/29 00:42:18;;;;;;;4.30;3.50;;;12.30;99.90;;;;;;4983803;28;20237;-86
2023/05/29 00:44:46;;;;;;;4.65;3.22;;;12.20;99.90;;;;;;4981371;28;20221;-86
2023/05/29 00:47:16;;;;;;;6.63;3.55;;;12.00;99.90;;;;;;4985961;28;20444;-84
2023/05/29 00:49:44;;;;;;;5.10;3.53;;;11.90;99.90;;;;;;4987331;28;20194;-85
2023/05/29 00:52:12;;;;;;;5.15;3.85;;;11.90;99.90;;;;;;4994920;28;20217;-83
2023/05/29 00:54:43;;;;;;;10.88;4.30;;;11.90;99.90;;;;;;5010418;28;20201;-85
2023/05/29 00:57:13;;;;;;;6.10;4.15;;;11.80;99.90;;;;;;4993716;28;20497;-89
2023/05/29 00:59:40;;;;;;;7.15;4.30;;;11.80;99.90;;;;;;4989091;28;20214;-85
2023/05/29 01:02:08;;;;;;;5.75;3.88;;;11.60;99.90;;;;;;4983332;28;20233;-84
2023/05/29 01:04:35;;;;;;;4.72;4.05;;;11.60;99.90;;;;;;4983196;28;20210;-87
2023/05/29 01:07:03;;;;;;;6.97;4.80;;;11.60;99.90;;;;;;4982303;28;20298;-87
2023/05/29 01:09:31;;;;;;;6.57;4.13;;;11.60;99.90;;;;;;4983638;28;20206;-85
2023/05/29 01:12:26;;;;;;;7.55;4.45;;;11.50;99.90;;;;;;4994983;28;20261;-83
2023/05/29 01:15:06;;;;;;;5.00;3.88;;;11.40;99.90;;;;;;4998694;28;20206;-84
2023/05/29 01:18:01;;;;;;;7.63;4.18;;;11.30;99.90;;;;;;4998340;28;20198;-83
2023/05/29 01:20:30;;;;;;;9.70;4.40;;;11.30;99.90;;;;;;4980404;28;20230;-85
2023/05/29 01:23:25;;;;;;;8.85;4.13;;;11.20;99.90;;;;;;4983787;28;20206;-86
2023/05/29 01:26:07;;;;;;;5.93;5.30;;;11.20;99.90;;;;;;4998992;28;20214;-84
2023/05/29 01:28:52;;;;;;;6.15;4.32;;;11.00;99.90;;;;;;4984064;28;20198;-85
2023/05/29 01:31:23;;;;;;;5.28;4.78;;;10.90;99.90;;;;;;4988063;28;20241;-86
2023/05/29 01:33:59;;;;;;;6.90;5.50;;;11.10;99.90;;;;;;4983051;28;20270;-87
2023/05/29 01:36:27;;;;;;;6.30;4.15;;;11.10;99.90;;;;;;4984442;28;20260;-87
2023/05/29 01:38:56;;;;;;;8.45;5.60;;;11.20;99.90;;;;;;4999337;28;20507;-84
2023/05/29 01:41:25;;;;;;;9.50;4.45;;;11.20;99.90;;;;;;4999521;28;20241;-85
2023/05/29 01:43:53;;;;;;;6.90;4.03;;;11.10;99.90;;;;;;4984056;28;20253;-89
2023/05/29 01:46:22;;;;;;;10.65;4.40;;;11.10;99.90;;;;;;5001408;28;20228;-88
2023/05/29 01:48:50;;;;;;;5.65;4.30;;;11.00;99.90;;;;;;4983884;28;20206;-85
2023/05/29 01:51:17;;;;;;;14.85;6.28;;;11.10;99.90;;;;;;4998929;28;20288;-88
2023/05/29 01:53:44;;;;;;;8.43;4.85;;;11.00;99.90;;;;;;4980666;28;20723;-86
2023/05/29 01:56:11;;;;;;;9.15;5.50;;;11.00;99.90;;;;;;4985158;28;20234;-86
2023/05/29 01:58:40;;;;;;;7.45;4.72;;;11.00;99.90;;;;;;4983413;28;20622;-87
2023/05/29 02:01:08;;;;;;;7.00;5.60;;;10.90;99.90;;;;;;4983483;28;20218;-86
2023/05/29 02:03:35;;;;;;;6.45;4.32;;;10.90;99.90;;;;;;4975665;28;20214;-86
2023/05/29 02:06:02;;;;;;;9.35;4.60;;;10.80;99.90;;;;;;4990665;28;20245;-86
2023/05/29 02:08:29;;;;;;;14.18;5.65;;;10.80;99.90;;;;;;4984280;28;20210;-86
2023/05/29 02:10:58;;;;;;;9.43;5.13;;;10.70;99.90;;;;;;4983822;28;20234;-87
2023/05/29 02:13:28;;;;;;;5.50;4.90;;;10.70;99.90;;;;;;4983046;28;20723;-88
2023/05/29 02:15:55;;;;;;;6.47;5.15;;;10.70;99.90;;;;;;4986241;28;20241;-86
2023/05/29 02:18:22;;;;;;;10.13;5.68;;;10.70;99.90;;;;;;4985060;28;20291;-88
2023/05/29 02:20:49;;;;;;;8.63;5.25;;;10.60;99.90;;;;;;4982050;28;20281;-87
2023/05/29 02:23:16;;;;;;;6.00;4.60;;;10.60;99.90;;;;;;4983187;28;20218;-89
2023/05/29 02:25:43;;;;;;;8.13;4.88;;;10.50;99.90;;;;;;4984458;28;20206;-86
2023/05/29 02:28:20;;;;;;;9.60;5.10;;;10.50;99.90;;;;;;4982467;28;20214;-88
2023/05/29 02:30:47;;;;;;;8.98;5.50;;;10.40;99.90;;;;;;4984820;28;20305;-88
2023/05/29 02:33:14;;;;;;;6.57;5.00;;;10.40;99.90;;;;;;4979303;28;20214;-87
2023/05/29 02:35:42;;;;;;;7.57;4.15;;;10.40;99.90;;;;;;5011885;28;20278;-84
2023/05/29 02:38:09;;;;;;;6.05;5.40;;;10.40;99.90;;;;;;4997261;28;20198;-84
2023/05/29 02:40:36;;;;;;;6.57;4.93;;;10.40;99.90;;;;;;5000225;28;20194;-85
2023/05/29 02:43:05;;;;;;;8.68;5.43;;;10.30;99.90;;;;;;5000144;28;20206;-86
2023/05/29 02:45:32;;;;;;;6.28;4.88;;;10.20;99.90;;;;;;4999746;28;20216;-88
2023/05/29 02:47:59;;;;;;;9.15;5.10;;;10.20;99.90;;;;;;5010508;28;20230;-91
2023/05/29 02:50:26;;;;;;;5.95;5.00;;;10.20;99.90;;;;;;4993069;28;20201;-86
2023/05/29 02:52:53;;;;;;;10.95;4.72;;;10.20;99.90;;;;;;5003210;28;20237;-82
2023/05/29 02:55:22;;;;;;;6.45;4.25;;;10.20;99.90;;;;;;4983821;28;20214;-89
2023/05/29 02:57:52;;;;;;;12.40;5.78;;;10.20;99.90;;;;;;4984105;28;20507;-86
2023/05/29 03:00:20;;;;;;;5.70;4.88;;;10.20;99.90;;;;;;4998106;28;20214;-88
2023/05/29 03:02:47;;;;;;;7.05;5.80;;;10.20;99.90;;;;;;4989869;28;20205;-85
2023/05/29 03:05:16;;;;;;;10.73;5.00;;;10.20;99.90;;;;;;4995758;28;20194;-85
2023/05/29 03:07:43;;;;;;;8.70;5.75;;;10.30;99.90;;;;;;4990323;28;20216;-86
2023/05/29 03:10:10;;;;;;;26.77;5.78;;;10.30;99.90;;;;;;4976344;28;20214;-88
2023/05/29 03:12:37;;;;;;;5.28;4.55;;;10.30;99.90;;;;;;4982444;28;20206;-88
2023/05/29 03:15:05;;;;;;;6.68;5.00;;;10.50;99.90;;;;;;4981328;28;20230;-89
2023/05/29 03:17:32;;;;;;;7.47;4.90;;;10.20;99.90;;;;;;4982828;28;20630;-87
2023/05/29 03:19:59;;;;;;;7.68;5.00;;;10.20;99.90;;;;;;4981080;28;20210;-87
2023/05/29 03:22:26;;;;;;;6.25;5.18;;;10.40;99.90;;;;;;4984712;28;20250;-88
2023/05/29 03:24:53;;;;;;;8.30;6.38;;;10.50;99.90;;;;;;4982921;28;20218;-90
2023/05/29 03:27:20;;;;;;;6.18;4.93;;;10.60;99.90;;;;;;4980255;28;20230;-85
2023/05/29 03:29:47;;;;;;;9.98;4.82;;;10.70;99.90;;;;;;4980208;28;20210;-86
2023/05/29 03:32:14;;;;;;;9.18;5.00;;;11.00;99.90;;;;;;4981377;28;20209;-89
2023/05/29 03:34:41;;;;;;;7.68;5.05;;;11.40;99.90;;;;;;4980730;28;20214;-85
2023/05/29 03:37:09;;;;;;;8.77;5.38;;;11.70;99.90;;;;;;4987001;28;20245;-86
2023/05/29 03:39:35;;;;;;;6.85;4.70;;;11.90;99.90;;;;;;4981383;28;20518;-84
2023/05/29 03:42:02;;;;;;;8.38;4.97;;;12.10;99.90;;;;;;4981330;28;20386;-88
2023/05/29 03:44:30;;;;;;;6.45;4.95;;;12.10;99.90;;;;;;4980833;28;20218;-86
2023/05/29 03:46:56;;;;;;;11.07;5.63;;;12.00;99.90;;;;;;4970390;28;20225;-86
2023/05/29 03:49:24;;;;;;;8.13;5.35;;;12.00;99.90;;;;;;4979954;28;20215;-84
2023/05/29 03:51:51;;;;;;;9.98;4.85;;;12.20;99.90;;;;;;4981204;28;20237;-88
2023/05/29 03:54:17;;;;;;;11.35;6.15;;;12.30;99.90;;;;;;4990497;28;20217;-87
2023/05/29 03:56:45;;;;;;;18.42;6.18;;;12.30;99.90;;;;;;4979273;28;20225;-87
2023/05/29 03:59:11;;;;;;;6.32;5.03;;;12.50;99.90;;;;;;4979760;28;20206;-86
2023/05/29 04:01:40;;;;;;;6.15;4.20;;;12.50;99.90;;;;;;4985422;28;20210;-85
2023/05/29 04:04:08;;;;;;;7.95;4.72;;;12.80;99.90;;;;;;4983004;28;20214;-87
2023/05/29 04:06:38;;;;;;;7.05;4.93;;;12.90;99.90;;;;;;4982709;28;20214;-88
2023/05/29 04:09:06;;;;;;;6.75;4.95;;;12.80;99.90;;;;;;4979465;28;20234;-86
2023/05/29 04:11:38;;;;;;;8.60;4.85;;;12.60;99.90;;;;;;4982896;28;20241;-84
2023/05/29 04:14:05;;;;;;;10.68;5.53;;;12.60;99.90;;;;;;4981924;28;20220;-88
2023/05/29 04:16:34;;;;;;;13.48;5.40;;;12.80;99.90;;;;;;4981460;28;20237;-87
2023/05/29 04:19:01;;;;;;;11.57;5.97;;;12.70;99.90;;;;;;4997767;28;20233;-85
2023/05/29 04:21:28;;;;;;;17.17;6.47;;;12.80;99.90;;;;;;4984180;28;20214;-83
2023/05/29 04:23:55;;;;;;;8.75;4.80;;;12.80;99.90;;;;;;4987395;28;20242;-85
2023/05/29 04:26:25;;;;;;;38.67;14.43;;;12.90;99.90;;;;;;4987464;28;20233;-83
2023/05/29 04:28:58;;;;;;;21.98;8.18;;;13.10;99.90;;;;;;4985645;28;20248;-86
2023/05/29 04:31:26;;;;;;;11.43;6.07;;;13.20;99.90;;;;;;4998925;28;20233;-84
2023/05/29 04:33:56;;;;;;;24.70;6.00;;;13.10;99.90;;;;;;4985039;28;20206;-83
2023/05/29 04:36:27;;;;;;;9.77;5.80;;;13.10;99.90;;;;;;4983147;28;20241;-82
2023/05/29 04:38:55;;;;;;;6.30;5.28;;;13.10;99.90;;;;;;4987101;28;20230;-84
2023/05/29 04:41:23;;;;;;;7.22;4.72;;;13.00;99.90;;;;;;4992976;28;20246;-81
2023/05/29 04:43:55;;;;;;;6.65;5.15;;;13.10;99.90;;;;;;4994898;28;20201;-82
2023/05/29 04:46:26;;;;;;;12.68;5.22;;;13.20;99.90;;;;;;4995611;28;20277;-87
2023/05/29 04:48:54;;;;;;;10.70;5.45;;;13.30;99.90;;;;;;4983608;28;20210;-85
2023/05/29 04:51:21;;;;;;;10.27;7.13;;;13.50;99.90;;;;;;4975896;28;20214;-85
2023/05/29 04:53:56;;;;;;;8.98;5.30;;;13.60;99.90;;;;;;4979941;28;20210;-80
2023/05/29 04:56:24;;;;;;;4.90;4.20;;;13.70;99.90;;;;;;4979592;28;20564;-86
2023/05/29 04:58:52;;;;;;;10.65;5.13;;;13.90;99.90;;;;;;4978550;28;20507;-83
2023/05/29 05:01:18;;;;;;;9.73;5.80;;;14.10;99.90;;;;;;4985397;28;20197;-83
2023/05/29 05:03:47;;;;;;;7.45;4.63;;;14.20;99.90;;;;;;4990592;28;20186;-83
2023/05/29 05:06:16;;;;;;;9.90;7.35;;;14.50;99.90;;;;;;4994665;28;20271;-80
2023/05/29 05:08:44;;;;;;;9.95;5.22;;;14.50;99.90;;;;;;4988879;28;20219;-83
2023/05/29 05:11:19;;;;;;;11.77;5.23;;;14.70;99.90;;;;;;4982947;28;20257;-86
2023/05/29 05:13:46;;;;;;;15.03;6.27;;;14.80;99.90;;;;;;4978968;28;20445;-86
2023/05/29 05:16:13;;;;;;;6.87;5.47;;;14.90;99.90;;;;;;4979710;28;20494;-86
2023/05/29 05:18:40;;;;;;;12.27;5.78;;;14.90;99.90;;;;;;4979724;28;20456;-86
2023/05/29 05:21:07;;;;;;;11.23;7.13;;;15.10;99.90;;;;;;4978984;28;20218;-85
2023/05/29 05:23:35;;;;;;;11.53;6.23;;;15.20;99.90;;;;;;4993873;28;20463;-81
2023/05/29 05:26:22;;;;;;;5.97;5.37;;;15.40;99.90;;;;;;4979819;28;20426;-84
2023/05/29 05:28:50;;;;;;;7.70;6.37;;;15.50;99.90;;;;;;4989855;28;20459;-80
2023/05/29 05:31:17;;;;;;;9.93;5.43;;;15.60;99.90;;;;;;4989878;28;20639;-84
2023/05/29 05:33:44;;;;;;;12.47;5.50;;;15.70;99.90;;;;;;4978858;28;20510;-83
2023/05/29 05:36:11;;;;;;;13.53;9.37;;;15.90;99.90;;;;;;4971634;28;20478;-85
2023/05/29 05:38:40;;;;;;;9.13;5.57;;;16.00;99.90;;;;;;4977949;28;20428;-85
2023/05/29 05:41:06;;;;;;;10.00;5.27;;;16.10;99.90;;;;;;4976555;28;20460;-84
2023/05/29 05:43:34;;;;;;;7.47;4.73;;;16.10;99.90;;;;;;4974259;28;20441;-82
2023/05/29 05:46:02;;;;;;;8.23;4.80;;;16.30;99.90;;;;;;4977011;28;20437;-82
2023/05/29 05:48:30;;;;;;;5.33;4.23;;;16.70;99.90;;;;;;4977457;28;20418;-83
2023/05/29 05:50:56;;;;;;;8.67;5.50;;;16.60;99.90;;;;;;4977662;28;20455;-81
2023/05/29 05:53:25;;;;;;;7.63;4.70;;;16.40;99.90;;;;;;4979088;28;20777;-82
2023/05/29 05:55:53;;;;;;;16.30;4.80;;;16.40;99.90;;;;;;4981434;28;20422;-83
2023/05/29 05:58:20;;;;;;;6.93;4.20;;;16.50;99.90;;;;;;4980435;28;20442;-82
2023/05/29 06:00:52;;;;;;;5.30;4.80;;;16.80;99.90;;;;;;4981133;28;20444;-82
2023/05/29 06:03:20;;;;;;;5.70;4.17;;;17.00;99.90;;;;;;4981318;28;20719;-79
2023/05/29 06:05:48;;;;;;;5.10;3.60;;;17.40;99.90;;;;;;4980070;28;20454;-83
2023/05/29 06:08:15;;;;;;;17.57;4.83;;;17.40;99.90;;;;;;4997150;28;20623;-82
2023/05/29 06:10:42;;;;;;;6.40;3.77;;;17.70;99.90;;;;;;4982564;28;20555;-84
2023/05/29 06:13:14;;;;;;;18.50;6.23;;;17.90;99.90;;;;;;4992772;28;20411;-81
2023/05/29 06:15:44;;;;;;;11.60;4.13;;;17.80;99.90;;;;;;4982471;28;20452;-82
2023/05/29 06:18:11;;;;;;;8.87;6.00;;;18.00;99.90;;;;;;4982035;28;20743;-83
2023/05/29 06:20:38;;;;;;;3.10;2.80;;;18.50;99.90;;;;;;4995844;28;20495;-79
2023/05/29 06:23:05;;;;;;;4.27;3.07;;;18.90;99.90;;;;;;4994256;28;20516;-81
2023/05/29 06:25:33;;;;;;;5.33;3.60;;;19.20;99.90;;;;;;4980137;28;20431;-80
2023/05/29 06:28:02;;;;;;;5.90;3.57;;;19.40;99.90;;;;;;4997578;28;20540;-81
2023/05/29 06:30:29;;;;;;;6.60;3.10;;;19.40;99.90;;;;;;4980824;28;20587;-83
2023/05/29 06:32:59;;;;;;;5.00;4.00;;;19.40;99.90;;;;;;4981920;28;20506;-86
2023/05/29 06:35:27;;;;;;;12.87;3.20;;;19.50;99.90;;;;;;4996383;28;20411;-82
2023/05/29 06:37:54;;;;;;;5.20;2.90;;;19.60;99.90;;;;;;4977822;28;20480;-82
2023/05/29 06:40:21;;;;;;;5.40;3.20;;;20.00;99.90;;;;;;4975722;28;20486;-82
2023/05/29 06:42:48;;;;;;;5.87;3.47;;;20.50;99.90;;;;;;4995998;28;20420;-84
2023/05/29 06:45:15;;;;;;;5.30;3.60;;;20.80;99.90;;;;;;4988753;28;20490;-80
2023/05/29 06:47:43;;;;;;;7.80;3.80;;;20.80;99.90;;;;;;4981149;28;20460;-81
2023/05/29 06:50:10;;;;;;;11.27;3.77;;;21.20;99.90;;;;;;4979376;28;20750;-81
2023/05/29 06:52:37;;;;;;;5.73;3.30;;;21.60;99.90;;;;;;4979384;28;20419;-81
2023/05/29 06:55:04;;;;;;;3.43;3.03;;;21.90;99.90;;;;;;4978610;28;20989;-84
2023/05/29 06:57:31;;;;;;;5.20;3.77;;;21.80;99.90;;;;;;4978249;28;20491;-82
2023/05/29 06:59:58;;;;;;;5.43;3.60;;;21.90;99.90;;;;;;4978856;28;20438;-80
2023/05/29 07:02:25;;;;;;;6.30;3.27;;;22.20;99.90;;;;;;4993620;28;20479;-81
2023/05/29 07:04:52;;;;;;;6.60;3.77;;;23.10;99.90;;;;;;4979290;28;20434;-82
2023/05/29 07:07:19;;;;;;;5.43;2.90;;;24.60;98.70;;;;;;4972515;28;20452;-83
2023/05/29 07:09:51;;;;;;;3.30;2.63;;;26.20;93.90;;;;;;4978616;28;20619;-82
2023/05/29 07:12:23;;;;;;;5.20;3.30;;;27.20;83.40;;;;;;4980048;28;20415;-86
2023/05/29 07:14:52;;;;;;;5.63;3.40;;;27.10;80.40;;;;;;4979289;28;20432;-84
2023/05/29 07:17:19;;;;;;;4.17;3.20;;;27.00;79.60;;;;;;4984881;28;20502;-82
2023/05/29 07:19:49;;;;;;;5.40;2.93;;;27.50;78.40;;;;;;4992208;28;20468;-80
2023/05/29 07:22:16;;;;;;;2.90;2.60;;;29.10;72.80;;;;;;5000725;28;20708;-87
2023/05/29 07:24:46;;;;;;;6.33;3.10;;;30.70;61.70;;;;;;4982230;28;20499;-88
2023/05/29 07:27:13;;;;;;;5.00;2.30;;;31.00;57.70;;;;;;4998117;28;20640;-85
2023/05/29 07:29:40;;;;;;;3.03;2.73;;;30.80;57.40;;;;;;4981919;28;20701;-83
2023/05/29 07:32:07;;;;;;;4.03;2.87;;;31.10;56.20;;;;;;4981178;28;20467;-82
2023/05/29 07:34:35;;;;;;;2.07;1.83;;;32.00;53.20;;;;;;4979965;28;20483;-81
2023/05/29 07:37:04;;;;;;;9.73;2.83;;;33.90;51.10;;;;;;4982156;28;20486;-86
2023/05/29 07:39:34;;;;;;;3.67;2.07;;;33.80;49.10;;;;;;4976409;28;20633;-83
2023/05/29 07:42:02;;;;;;;2.87;2.27;;;34.70;46.90;;;;;;4986233;28;20929;-81
2023/05/29 07:44:29;;;;;;;2.53;2.23;;;35.90;44.70;;;;;;5006116;28;20460;-83
2023/05/29 07:46:57;;;;;;;4.60;2.57;;;36.10;42.60;;;;;;4978566;28;20484;-85
2023/05/29 07:49:24;;;;;;;2.10;1.80;;;36.20;43.00;;;;;;4981289;28;20856;-83
2023/05/29 07:51:51;;;;;;;10.10;2.03;;;36.50;40.30;;;;;;4981213;28;20449;-84
2023/05/29 07:54:20;;;;;;;3.60;1.77;;;34.90;40.70;;;;;;4996978;28;20457;-81
2023/05/29 07:56:48;;;;;;;2.50;1.90;;;34.10;40.70;;;;;;4996982;28;20449;-83
2023/05/29 07:59:15;;;;;;;5.83;3.03;;;32.20;43.60;;;;;;4982409;28;20445;-84
2023/05/29 08:01:43;;;;;;;2.10;1.90;;;32.10;44.60;;;;;;4982815;28;20448;-82
2023/05/29 08:04:11;;;;;;;5.20;2.00;;;34.20;41.90;;;;;;4978679;28;20444;-87
2023/05/29 08:06:42;;;;;;;8.33;2.70;;;34.90;41.90;;;;;;4994673;28;20445;-84
2023/05/29 08:09:10;;;;;;;3.63;2.20;;;34.60;41.60;;;;;;4978060;28;20454;-86
2023/05/29 08:11:37;;;;;;;3.30;1.90;;;34.90;41.50;;;;;;4979834;28;20468;-82
2023/05/29 08:14:04;;;;;;;8.23;2.20;;;34.90;41.40;;;;;;4995318;28;20437;-82
2023/05/29 08:16:31;;;;;;;3.57;2.30;;;35.90;40.20;;;;;;4984356;28;20507;-80
2023/05/29 08:18:58;;;;;;;6.33;3.10;;;37.00;39.00;;;;;;4983788;28;20445;-81
2023/05/29 08:21:25;;;;;;;3.43;2.63;;;36.50;39.30;;;;;;4980665;28;20454;-83
2023/05/29 08:23:52;;;;;;;2.10;1.87;;;36.20;39.10;;;;;;4982404;28;20452;-86
2023/05/29 08:26:21;;;;;;;4.47;2.13;;;36.90;37.80;;;;;;5002192;28;20437;-83
2023/05/29 08:28:56;;;;;;;6.23;2.77;;;37.30;37.80;;;;;;4984419;28;20508;-81
2023/05/29 08:31:31;;;;;;;3.27;2.47;;;37.50;37.20;;;;;;4993125;28;20437;-83
2023/05/29 08:34:01;;;;;;;4.37;2.53;;;36.70;38.00;;;;;;4997183;28;20460;-83
2023/05/29 08:36:28;;;;;;;3.70;2.63;;;35.60;38.80;;;;;;4990206;28;20448;-82
2023/05/29 08:38:57;;;;;;;4.63;2.27;;;34.50;39.90;;;;;;4982557;28;20460;-85
2023/05/29 08:41:48;;;;;;;2.97;2.30;;;33.90;39.90;;;;;;4982495;28;20536;-83
2023/05/29 08:45:00;;;;;;;;;;;;;;;;;;;;;
2023/05/29 08:47:33;;;;;;;5.73;2.13;;;32.80;40.10;;;;;;4975759;28;20616;-85
2023/05/29 08:50:02;;;;;;;6.50;1.60;;;31.90;39.80;;;;;;4979439;28;20432;-82
2023/05/29 08:52:35;;;;;;;3.20;2.50;;;33.10;38.50;;;;;;4995523;28;20451;-83
2023/05/29 08:55:03;;;;;;;3.60;2.30;;;33.50;37.90;;;;;;4980198;28;20445;-84
2023/05/29 08:57:31;;;;;;;7.80;2.50;;;32.70;37.80;;;;;;4980172;28;20448;-83
2023/05/29 09:00:05;;;;;;;5.13;2.30;;;33.60;37.10;;;;;;4993715;28;20441;-85
2023/05/29 09:02:35;;;;;;;5.23;2.07;;;35.10;36.00;;;;;;4981579;28;20439;-81
2023/05/29 09:05:06;;;;;;;8.40;2.00;;;34.10;35.70;;;;;;4979804;28;20637;-84
2023/05/29 09:07:34;;;;;;;2.83;2.50;;;31.60;38.90;;;;;;4985110;28;20512;-82
2023/05/29 09:10:02;;;;;;;3.20;2.03;;;32.40;38.50;;;;;;4990564;28;20505;-81
2023/05/29 09:12:31;;;;;;;3.13;2.83;;;32.90;37.10;;;;;;4986641;28;20471;-83
2023/05/29 09:14:58;;;;;;;2.27;2.00;;;31.90;37.80;;;;;;4986736;28;20835;-83
2023/05/29 09:17:31;;;;;;;5.73;2.60;;;31.30;38.80;;;;;;4985986;28;20629;-81
2023/05/29 09:19:58;;;;;;;5.37;2.37;;;32.10;39.00;;;;;;4993111;28;20511;-82
2023/05/29 09:22:28;;;;;;;6.53;2.40;;;32.40;37.20;;;;;;4991021;28;20552;-81
2023/05/29 09:25:11;;;;;;;8.67;2.30;;;30.90;39.10;;;;;;4978079;28;20496;-86
2023/05/29 09:27:40;;;;;;;2.87;2.10;;;31.20;38.90;;;;;;4991092;28;20454;-83
2023/05/29 09:30:10;;;;;;;2.47;2.00;;;30.50;39.60;;;;;;4986449;28;20448;-83
2023/05/29 09:32:40;;;;;;;3.80;2.40;;;26.90;43.90;;;;;;4985710;28;20486;-86
2023/05/29 09:35:09;;;;;;;2.70;1.90;;;26.10;46.10;;;;;;4985498;28;20503;-87
2023/05/29 09:37:41;;;;;;;2.37;2.17;;;25.60;47.60;;;;;;4979185;28;20516;-85
2023/05/29 09:40:11;;;;;;;4.37;2.20;;;25.20;47.70;;;;;;4984831;28;20483;-82
2023/05/29 09:42:38;;;;;;;4.23;2.20;;;25.20;48.10;;;;;;4984767;28;20423;-85
2023/05/29 09:45:06;;;;;;;4.10;2.40;;;24.20;49.20;;;;;;5001227;28;20418;-85
2023/05/29 09:47:34;;;;;;;2.93;2.40;;;24.40;50.50;;;;;;4999555;28;20478;-83
2023/05/29 09:50:04;;;;;;;4.67;3.40;;;24.10;50.90;;;;;;4984917;28;20423;-85
2023/05/29 09:52:32;;;;;;;2.20;1.90;;;24.10;51.40;;;;;;4983803;28;20516;-85
2023/05/29 09:55:00;;;;;;;4.33;2.53;;;24.10;51.50;;;;;;4984888;28;20419;-86
2023/05/29 09:57:28;;;;;;;3.73;2.30;;;24.10;52.70;;;;;;4985440;28;20431;-85
2023/05/29 10:00:00;;;;;;;2.80;2.40;;;23.90;52.80;;;;;;4998549;28;20484;-81
2023/05/29 10:02:27;;;;;;;3.13;2.83;;;23.70;52.90;;;;;;4994579;28;20418;-85
2023/05/29 10:04:54;;;;;;;4.87;2.53;;;23.50;54.00;;;;;;4998098;28;20463;-84
2023/05/29 10:07:31;;;;;;;4.97;3.23;;;23.70;55.00;;;;;;4998576;28;20467;-82
2023/05/29 10:10:04;;;;;;;4.33;2.57;;;23.50;53.80;;;;;;5013677;28;20508;-82
2023/05/29 10:12:34;;;;;;;7.00;3.80;;;23.30;55.40;;;;;;4997646;28;20446;-81
2023/05/29 10:15:02;;;;;;;3.30;3.00;;;23.00;56.20;;;;;;4998827;28;20439;-82
2023/05/29 10:17:34;;;;;;;3.37;2.33;;;22.90;56.80;;;;;;4996869;28;20425;-81
2023/05/29 10:20:07;;;;;;;2.80;2.23;;;22.80;57.60;;;;;;4998341;28;20470;-84
2023/05/29 10:22:39;;;;;;;4.13;3.03;;;22.90;58.40;;;;;;4989099;28;20598;-84
2023/05/29 10:25:09;;;;;;;3.43;2.77;;;23.00;59.10;;;;;;4979256;28;20514;-81
2023/05/29 10:27:37;;;;;;;7.23;2.60;;;23.10;59.20;;;;;;4983787;28;20458;-81
2023/05/29 10:30:37;;;;;;;3.43;2.60;;;23.20;58.40;;;;;;4983156;28;20431;-81
2023/05/29 10:33:46;;;;;;;2.87;2.33;;;23.00;59.30;;;;;;5002408;28;20421;-82
2023/05/29 10:36:16;;;;;;;4.30;2.43;;;23.20;59.30;;;;;;4965446;28;20438;-84
2023/05/29 10:38:46;;;;;;;3.50;2.60;;;23.40;60.70;;;;;;4969707;28;20411;-86
2023/05/29 10:41:28;;;;;;;5.10;2.60;;;23.60;60.10;;;;;;4978249;28;20465;-81
2023/05/29 10:44:03;;;;;;;5.30;2.77;;;23.60;59.60;;;;;;4983025;28;20492;-84
2023/05/29 10:46:50;;;;;;;2.83;2.60;;;23.50;59.50;;;;;;4983237;28;20422;-81
2023/05/29 10:49:50;;;;;;;4.20;2.20;;;23.50;58.40;;;;;;4983159;28;20553;-84
2023/05/29 10:52:20;;;;;;;2.63;2.43;;;23.30;59.60;;;;;;4982371;28;20438;-86
2023/05/29 10:54:54;;;;;;;3.97;2.87;;;23.20;59.10;;;;;;4975621;28;20473;-83
2023/05/29 10:57:26;;;;;;;2.63;2.00;;;23.20;60.10;;;;;;4974656;28;20454;-86
2023/05/29 11:00:06;;;;;;;6.53;2.90;;;23.30;58.50;;;;;;4983131;28;20431;-83
2023/05/29 11:02:38;;;;;;;6.63;2.23;;;23.20;58.30;;;;;;4996001;28;20451;-82
2023/05/29 11:05:19;;;;;;;9.83;3.13;;;23.40;59.80;;;;;;4982797;28;20414;-86
2023/05/29 11:07:55;;;;;;;3.40;2.60;;;23.60;58.70;;;;;;4983511;28;20472;-87
2023/05/29 11:10:44;;;;;;;3.97;2.47;;;23.30;59.90;;;;;;4980423;28;20444;-86
2023/05/29 11:13:23;;;;;;;2.60;2.40;;;23.50;61.20;;;;;;4986962;28;20428;-85
2023/05/29 11:16:09;;;;;;;9.33;3.03;;;23.70;59.60;;;;;;4992030;28;20415;-80
2023/05/29 11:18:40;;;;;;;3.40;2.50;;;24.00;59.80;;;;;;4992100;28;20431;-82
2023/05/29 11:21:33;;;;;;;3.90;2.50;;;24.20;58.90;;;;;;4990828;28;20436;-81
2023/05/29 11:24:04;;;;;;;9.63;3.40;;;24.30;59.10;;;;;;4983741;28;20443;-85
2023/05/29 11:26:37;;;;;;;6.07;2.43;;;24.40;58.80;;;;;;4981974;28;20448;-88
2023/05/29 11:29:05;;;;;;;3.60;2.97;;;24.40;58.40;;;;;;4982341;28;20500;-85
2023/05/29 11:31:34;;;;;;;5.93;2.40;;;24.30;58.30;;;;;;4982347;28;20423;-82
2023/05/29 11:34:04;;;;;;;5.53;2.97;;;24.30;59.00;;;;;;4982084;28;20419;-85
2023/05/29 11:36:34;;;;;;;2.50;2.30;;;24.30;58.20;;;;;;4981454;28;20448;-85
2023/05/29 11:39:03;;;;;;;3.73;2.97;;;24.50;59.70;;;;;;4982664;28;20506;-88
2023/05/29 11:41:32;;;;;;;2.73;2.40;;;24.50;58.40;;;;;;4982929;28;20475;-83
2023/05/29 11:44:05;;;;;;;4.70;3.13;;;24.60;59.00;;;;;;4981515;28;20434;-85
2023/05/29 11:46:34;;;;;;;3.80;2.47;;;24.50;58.30;;;;;;4981762;28;20432;-86
2023/05/29 11:49:01;;;;;;;3.23;2.13;;;24.00;59.00;;;;;;4981138;28;20450;-83
2023/05/29 11:51:28;;;;;;;5.80;3.13;;;24.00;59.30;;;;;;4996631;28;20511;-82
2023/05/29 11:53:58;;;;;;;5.70;2.77;;;24.00;59.10;;;;;;4981671;28;21092;-85
2023/05/29 11:56:29;;;;;;;6.70;3.33;;;24.20;59.60;;;;;;4982962;28;20448;-85
2023/05/29 11:58:59;;;;;;;3.67;3.10;;;23.90;60.20;;;;;;4979301;28;20452;-85
2023/05/29 12:01:28;;;;;;;4.33;3.20;;;23.90;59.90;;;;;;4983203;28;20431;-84
2023/05/29 12:03:55;;;;;;;2.80;2.53;;;23.70;59.40;;;;;;4983839;28;20464;-79
2023/05/29 12:06:37;;;;;;;6.10;2.90;;;23.90;59.90;;;;;;4982450;28;20479;-83
2023/05/29 12:09:05;;;;;;;5.70;2.77;;;24.10;59.70;;;;;;4981971;28;20483;-84
2023/05/29 12:11:34;;;;;;;7.70;2.87;;;24.20;59.10;;;;;;4983958;28;20487;-82
2023/05/29 12:14:03;;;;;;;3.83;2.43;;;24.40;58.70;;;;;;4984366;28;20459;-83
2023/05/29 12:16:33;;;;;;;2.50;2.30;;;24.70;58.50;;;;;;4984527;28;20445;-83
2023/05/29 12:19:00;;;;;;;2.93;2.63;;;24.90;56.60;;;;;;4996305;28;20419;-84
2023/05/29 12:21:28;;;;;;;3.50;2.60;;;24.80;56.20;;;;;;4996502;28;20436;-80
2023/05/29 12:23:55;;;;;;;4.60;2.60;;;24.70;57.10;;;;;;4986927;28;20418;-86
2023/05/29 12:26:41;;;;;;;5.10;3.30;;;24.70;58.10;;;;;;4992874;28;20459;-83
2023/05/29 12:29:08;;;;;;;3.90;2.70;;;24.40;57.10;;;;;;4982154;28;20745;-85
2023/05/29 12:31:41;;;;;;;3.37;2.70;;;24.40;58.00;;;;;;4976139;28;20507;-84
2023/05/29 12:34:12;;;;;;;4.07;2.67;;;24.50;58.00;;;;;;4979953;28;20885;-84
2023/05/29 12:36:45;;;;;;;3.50;2.70;;;24.80;58.00;;;;;;4981925;28;20428;-82
2023/05/29 12:39:12;;;;;;;3.73;3.20;;;24.80;56.00;;;;;;4982192;28;20488;-84
2023/05/29 12:41:41;;;;;;;3.37;2.40;;;24.70;57.00;;;;;;4996848;28;20429;-83
2023/05/29 12:44:08;;;;;;;6.90;2.60;;;24.80;58.80;;;;;;4980361;28;20449;-85
2023/05/29 12:46:46;;;;;;;3.07;2.13;;;24.80;57.40;;;;;;4996739;28;20447;-86
2023/05/29 12:49:14;;;;;;;3.20;2.27;;;24.80;56.80;;;;;;4980048;28;20850;-85
2023/05/29 12:51:43;;;;;;;7.90;2.60;;;24.70;57.40;;;;;;4980693;28;20444;-83
2023/05/29 12:54:14;;;;;;;2.37;2.17;;;24.60;56.60;;;;;;4981463;28;20593;-86
2023/05/29 12:56:44;;;;;;;2.70;2.43;;;24.40;56.70;;;;;;4982915;28;20436;-84
2023/05/29 12:59:13;;;;;;;4.00;1.87;;;24.20;57.20;;;;;;4983328;28;20471;-84